Aérodrome :
LOGIN :

S'inscrire | Disclaimer

   EN    FR    IT 

 










Légende :    VFR   VFR Marginal   IFR   IFR Intensif   IFR Très Intensif
Visi : 
Plafond : 
>= 8 km
>= 3000ft
5 à 8 km
1000 à 3000 ft
1500m à 5 km
500 à 1000 ft
800 à 1500m
200 à 500 ft
< 800m
< 200 ft
Symboles :   Orages  Brouillard  Fortes neiges  Fortes précipitations  Vent > 20 kt
SIGMETs :   Divers  Orages  Givrage  Turbulence  Onde Orograph.  Cendres Volcan.






- Altitude de l'aérodrome : 49 ft
- Code IATA : GLZ


EHGR - Gilze-Rijen Airbase

DERNIER METAR :
  • 192325Z AUTO 21011KT 170V250 9999 -DZ FEW007 SCT008 BKN009 07/06 Q1018 REDZ GRN

METARs EXPIRÉS :
  • 192311Z AUTO 20011KT 160V260 3800 +DZ FEW007 BKN009 OVC010 07/06 Q1018 GRN
  • 192255Z AUTO 20011KT 170V230 9999 DZ FEW009 OVC010 07/05 Q1018 GRN
  • 192225Z AUTO 20011KT 160V240 9999 +DZ SCT011 SCT017 BKN029 06/05 Q1018 GRN
  • 192202Z AUTO 20012KT 150V230 9999 -DZ FEW011 BKN031 OVC035 06/05 Q1018 BLU
  • 192155Z AUTO 19013KT 140V230 9999 BKN012 OVC014 06/05 Q1018 GRN 23007KT 9999 BKN020 OVC025 BECMG FEW012 BKN015
  • 192125Z AUTO 19011KT 150V230 9999 FEW011 BKN045 OVC074 06/05 Q1019 BLU 23007KT 9999 BKN020 OVC025 BECMG FEW012 BKN015
  • 192102Z AUTO 20011KT 160V240 9999 -DZ FEW016 BKN026 BKN046 06/04 Q1019 BLU 23007KT 9999 BKN020 OVC025 BECMG FEW012 BKN015
  • 192055Z AUTO 20010KT 160V230 9999 -RADZ BKN016 BKN021 BKN027 06/04 Q1019 WHT 23007KT 9999 BKN020 OVC025 BECMG FEW012 BKN015

TAF TAF EHGR
Valide du 19 à 18h jusqu'au 20 à 06h UTC


191742Z 1918/2006 21005KT 9999 BKN035
BECMG 1921/1923 21012G22KT -RA BKN011 OVC015
TEMPO 1922/2001 4000 RADZ SCT008 BKN010
BECMG 2001/2003 NSW SCT015 BKN025
TEMPO 2002/2006 FEW015 BKN025
PROB30
TEMPO 2001/2006 3000 -DZ FEW008 SCT012 BKN015



MET'MAP, la Météo Aéronautique d'un coup d'oeil ! - Copyright ORBIFLY Décembre 2007 - Disclaimer

ORBIFLY MET'MAP TEAM :

Programmation & Développement : Alexandra Zaïnal
Sur une idée originale de : Baudouin d'Aumeries
Assistance à la programmation : Marc-Olivier Méhu
Soutien technique & logistique : Manuel Goepfert

Contact : metmap@orbifly.com




SOURCES & CREDITS :

   NOAA